Time;durP1;ratioP1;P1;durP2;ratioP2;P2;SDS_P1;SDS_P2;PMS_P1;PMS_P2;Temp;Humidity;BMP_temperature;BMP_pressure;BME280_temperature;BME280_humidity;BME280_pressure;Samples;Min_cycle;Max_cycle;Signal;HPM_P1;HPM_P2
2021/06/22 00:01:12;;;;;;;1.30;0.90;;;;;;;;;;4978208;28;20572;-71
2021/06/22 00:03:38;;;;;;;4.33;1.27;;;;;;;;;;4978780;28;20579;-73
2021/06/22 00:06:04;;;;;;;1.30;0.97;;;;;;;;;;4976121;28;20460;-74
2021/06/22 00:08:30;;;;;;;2.40;0.90;;;;;;;;;;4975831;28;20449;-73
2021/06/22 00:10:56;;;;;;;1.10;1.00;;;;;;;;;;4959577;28;20439;-74
2021/06/22 00:13:22;;;;;;;3.70;1.07;;;;;;;;;;4959744;28;20468;-73
2021/06/22 00:15:48;;;;;;;3.83;1.10;;;;;;;;;;4976635;28;20456;-72
2021/06/22 00:18:14;;;;;;;1.80;0.77;;;;;;;;;;4977855;28;20448;-72
2021/06/22 00:20:40;;;;;;;1.80;0.80;;;;;;;;;;4976347;28;21089;-76
2021/06/22 00:23:06;;;;;;;2.73;1.40;;;;;;;;;;4959701;28;20499;-75
2021/06/22 00:25:32;;;;;;;1.13;0.70;;;;;;;;;;4982946;28;20620;-72
2021/06/22 00:27:58;;;;;;;1.73;1.03;;;;;;;;;;4981870;28;20539;-71
2021/06/22 00:30:25;;;;;;;1.47;1.17;;;;;;;;;;4959534;28;20685;-71
2021/06/22 00:32:51;;;;;;;2.00;1.00;;;;;;;;;;4980579;28;20965;-74
2021/06/22 00:35:17;;;;;;;2.50;0.80;;;;;;;;;;4976623;28;20433;-73
2021/06/22 00:37:44;;;;;;;8.07;1.10;;;;;;;;;;4965974;28;20886;-72
2021/06/22 00:40:11;;;;;;;3.53;1.20;;;;;;;;;;4976433;28;20957;-72
2021/06/22 00:42:37;;;;;;;0.80;0.70;;;;;;;;;;4976408;28;20445;-73
2021/06/22 00:45:03;;;;;;;1.47;0.83;;;;;;;;;;4961414;28;20447;-72
2021/06/22 00:47:31;;;;;;;3.17;0.90;;;;;;;;;;4978815;28;21004;-73
2021/06/22 00:49:57;;;;;;;0.60;0.60;;;;;;;;;;4979416;28;20858;-71
2021/06/22 00:52:24;;;;;;;0.90;0.50;;;;;;;;;;4975492;28;20496;-71
2021/06/22 00:54:50;;;;;;;1.37;1.27;;;;;;;;;;4960345;28;20464;-73
2021/06/22 00:57:17;;;;;;;10.77;0.80;;;;;;;;;;4980958;28;20473;-74
2021/06/22 00:59:43;;;;;;;1.50;0.70;;;;;;;;;;4977526;28;20441;-72
2021/06/22 01:02:09;;;;;;;4.57;1.20;;;;;;;;;;4963608;28;20479;-72
2021/06/22 01:04:36;;;;;;;1.47;0.80;;;;;;;;;;4952905;28;20445;-74
2021/06/22 01:07:03;;;;;;;4.90;1.07;;;;;;;;;;4978204;28;20593;-71
2021/06/22 01:09:29;;;;;;;2.17;0.80;;;;;;;;;;4975165;28;20564;-71
2021/06/22 01:11:55;;;;;;;1.90;1.00;;;;;;;;;;4974562;28;20445;-72
2021/06/22 01:14:21;;;;;;;3.70;1.07;;;;;;;;;;4974688;28;20471;-72
2021/06/22 01:16:47;;;;;;;4.07;0.87;;;;;;;;;;4975357;28;20456;-71
2021/06/22 01:19:16;;;;;;;3.03;1.20;;;;;;;;;;4978032;28;20476;-72
2021/06/22 01:21:42;;;;;;;1.73;1.00;;;;;;;;;;4979992;28;20913;-71
2021/06/22 01:24:08;;;;;;;3.83;1.10;;;;;;;;;;4979035;28;20441;-75
2021/06/22 01:26:38;;;;;;;2.10;1.20;;;;;;;;;;4959882;28;20500;-73
2021/06/22 01:29:07;;;;;;;1.97;1.00;;;;;;;;;;4976282;28;21202;-70
2021/06/22 01:31:34;;;;;;;4.53;0.97;;;;;;;;;;4975842;28;20469;-72
2021/06/22 01:34:00;;;;;;;1.00;0.90;;;;;;;;;;4981272;28;20507;-75
2021/06/22 01:36:28;;;;;;;5.00;1.40;;;;;;;;;;4980079;28;20464;-74
2021/06/22 01:38:54;;;;;;;2.40;0.97;;;;;;;;;;4965517;28;20433;-72
2021/06/22 01:41:20;;;;;;;2.53;0.77;;;;;;;;;;4976146;28;20512;-71
2021/06/22 01:43:46;;;;;;;0.90;0.90;;;;;;;;;;4980422;28;20487;-74
2021/06/22 01:46:12;;;;;;;5.30;1.10;;;;;;;;;;4978860;28;21568;-72
2021/06/22 01:48:38;;;;;;;2.50;1.00;;;;;;;;;;4977045;28;20463;-71
2021/06/22 01:51:04;;;;;;;1.10;1.00;;;;;;;;;;4975278;28;20445;-74
2021/06/22 01:53:30;;;;;;;0.70;0.70;;;;;;;;;;4975178;28;20519;-73
2021/06/22 01:55:56;;;;;;;9.13;1.27;;;;;;;;;;4960706;28;20512;-74
2021/06/22 01:58:22;;;;;;;6.80;0.90;;;;;;;;;;4965073;28;21040;-72
2021/06/22 02:00:52;;;;;;;3.80;1.10;;;;;;;;;;4981127;28;20946;-74
2021/06/22 02:03:19;;;;;;;1.47;1.37;;;;;;;;;;4955062;28;20429;-72
2021/06/22 02:05:46;;;;;;;1.67;1.20;;;;;;;;;;4983947;28;20460;-72
2021/06/22 02:08:12;;;;;;;2.20;0.87;;;;;;;;;;4953587;28;20437;-72
2021/06/22 02:10:38;;;;;;;5.33;1.80;;;;;;;;;;4981380;28;20444;-72
2021/06/22 02:13:05;;;;;;;4.80;1.70;;;;;;;;;;4984093;28;20445;-71
2021/06/22 02:15:31;;;;;;;1.90;1.47;;;;;;;;;;4980406;28;20457;-73
2021/06/22 02:17:58;;;;;;;2.53;1.57;;;;;;;;;;4979770;28;20955;-74
2021/06/22 02:20:26;;;;;;;2.13;1.93;;;;;;;;;;4984818;28;20441;-71
2021/06/22 02:22:52;;;;;;;3.37;2.00;;;;;;;;;;4986133;28;20445;-72
2021/06/22 02:25:18;;;;;;;2.60;2.20;;;;;;;;;;4981597;28;20444;-71
2021/06/22 02:27:45;;;;;;;4.07;2.67;;;;;;;;;;4982098;28;20460;-71
2021/06/22 02:30:13;;;;;;;8.17;2.57;;;;;;;;;;4976202;28;20521;-72
2021/06/22 02:32:39;;;;;;;3.70;2.60;;;;;;;;;;4981637;28;20970;-71
2021/06/22 02:35:07;;;;;;;3.10;2.00;;;;;;;;;;4984509;28;20476;-72
2021/06/22 02:37:33;;;;;;;2.60;2.30;;;;;;;;;;4981353;28;20468;-71
2021/06/22 02:39:59;;;;;;;3.33;2.03;;;;;;;;;;4979935;28;20445;-72
2021/06/22 02:42:26;;;;;;;5.80;2.67;;;;;;;;;;4981741;28;20453;-72
2021/06/22 02:44:51;;;;;;;4.40;2.70;;;;;;;;;;4981901;28;20958;-71
2021/06/22 02:47:18;;;;;;;2.77;2.10;;;;;;;;;;4968246;28;20471;-73
2021/06/22 02:49:46;;;;;;;3.97;3.03;;;;;;;;;;4981209;28;20850;-71
2021/06/22 02:52:12;;;;;;;4.10;3.00;;;;;;;;;;4979211;28;20448;-76
2021/06/22 02:54:38;;;;;;;4.60;2.37;;;;;;;;;;4980186;28;20472;-74
2021/06/22 02:57:05;;;;;;;11.10;3.30;;;;;;;;;;4969098;28;20457;-73
2021/06/22 02:59:31;;;;;;;5.13;3.07;;;;;;;;;;4982020;28;20452;-71
2021/06/22 03:01:58;;;;;;;5.70;3.50;;;;;;;;;;4967426;28;20429;-71
2021/06/22 03:04:24;;;;;;;9.13;3.13;;;;;;;;;;4959862;28;20528;-72
2021/06/22 03:06:50;;;;;;;3.43;2.50;;;;;;;;;;4979199;28;20587;-70
2021/06/22 03:09:16;;;;;;;5.40;2.90;;;;;;;;;;4978465;28;20912;-72
2021/06/22 03:11:42;;;;;;;12.20;3.23;;;;;;;;;;4964069;28;20444;-72
2021/06/22 03:14:08;;;;;;;4.70;3.07;;;;;;;;;;4976918;28;20812;-71
2021/06/22 03:16:34;;;;;;;3.60;2.73;;;;;;;;;;4982598;28;20510;-71
2021/06/22 03:19:00;;;;;;;5.47;2.83;;;;;;;;;;4977825;28;20441;-71
2021/06/22 03:21:26;;;;;;;8.23;2.70;;;;;;;;;;4982115;28;20437;-72
2021/06/22 03:23:52;;;;;;;4.23;2.60;;;;;;;;;;4981653;28;21378;-71
2021/06/22 03:26:18;;;;;;;3.93;2.70;;;;;;;;;;4978101;28;20467;-72
2021/06/22 03:28:44;;;;;;;3.33;2.50;;;;;;;;;;4964414;28;20514;-72
2021/06/22 03:31:10;;;;;;;2.90;2.40;;;;;;;;;;4960650;28;20457;-74
2021/06/22 03:33:36;;;;;;;11.93;3.23;;;;;;;;;;4980316;28;20534;-73
2021/06/22 03:36:02;;;;;;;5.67;2.80;;;;;;;;;;4979903;28;20461;-72
2021/06/22 03:38:28;;;;;;;3.07;2.77;;;;;;;;;;4983381;28;20858;-72
2021/06/22 03:40:54;;;;;;;4.67;2.50;;;;;;;;;;4977644;28;20484;-72
2021/06/22 03:43:21;;;;;;;3.20;2.60;;;;;;;;;;4977483;28;20468;-73
2021/06/22 03:45:47;;;;;;;7.30;2.73;;;;;;;;;;4982872;28;20508;-72
2021/06/22 03:48:13;;;;;;;3.73;2.80;;;;;;;;;;4977705;28;21873;-74
2021/06/22 03:50:40;;;;;;;3.97;3.10;;;;;;;;;;4976057;28;20716;-73
2021/06/22 03:53:06;;;;;;;3.90;3.00;;;;;;;;;;4980580;28;20556;-71
2021/06/22 03:55:32;;;;;;;6.93;4.73;;;;;;;;;;4980756;28;20459;-71
2021/06/22 03:57:59;;;;;;;8.13;3.50;;;;;;;;;;4977200;28;20467;-70
2021/06/22 04:00:25;;;;;;;3.13;2.33;;;;;;;;;;4976229;28;20436;-71
2021/06/22 04:02:52;;;;;;;6.00;2.77;;;;;;;;;;4977263;28;20437;-73
2021/06/22 04:05:18;;;;;;;2.80;2.57;;;;;;;;;;4980168;28;20440;-71
2021/06/22 04:07:45;;;;;;;6.33;3.60;;;;;;;;;;4977521;28;20433;-71
2021/06/22 04:10:11;;;;;;;5.20;3.00;;;;;;;;;;4977951;28;20440;-75
2021/06/22 04:12:37;;;;;;;7.47;3.20;;;;;;;;;;4976908;28;20444;-73
2021/06/22 04:15:03;;;;;;;5.67;2.90;;;;;;;;;;4976039;28;20464;-72
2021/06/22 04:17:29;;;;;;;7.77;3.23;;;;;;;;;;4979018;28;20460;-72
2021/06/22 04:19:55;;;;;;;3.13;2.67;;;;;;;;;;4977131;28;20429;-75
2021/06/22 04:22:21;;;;;;;3.40;2.50;;;;;;;;;;4980732;28;20444;-71
2021/06/22 04:24:47;;;;;;;6.60;2.83;;;;;;;;;;4980504;28;21011;-71
2021/06/22 04:27:13;;;;;;;3.80;3.13;;;;;;;;;;4977946;28;20547;-71
2021/06/22 04:29:39;;;;;;;4.40;3.10;;;;;;;;;;4976720;28;21144;-72
2021/06/22 04:32:05;;;;;;;7.73;3.20;;;;;;;;;;4977498;28;20520;-73
2021/06/22 04:34:31;;;;;;;3.50;2.50;;;;;;;;;;4974118;28;20547;-74
2021/06/22 04:36:58;;;;;;;3.20;2.40;;;;;;;;;;4973845;28;23479;-71
2021/06/22 04:39:24;;;;;;;4.80;2.47;;;;;;;;;;4975111;28;21032;-72
2021/06/22 04:41:50;;;;;;;3.70;2.73;;;;;;;;;;4968606;28;20456;-74
2021/06/22 04:44:16;;;;;;;4.20;2.97;;;;;;;;;;4983052;28;20441;-72
2021/06/22 04:46:42;;;;;;;5.67;2.57;;;;;;;;;;4982402;28;20507;-70
2021/06/22 04:49:08;;;;;;;6.13;2.67;;;;;;;;;;4976580;28;20539;-71
2021/06/22 04:51:34;;;;;;;7.73;2.13;;;;;;;;;;4969707;28;20449;-72
2021/06/22 04:54:00;;;;;;;6.70;2.60;;;;;;;;;;4946183;28;20520;-75
2021/06/22 04:56:26;;;;;;;3.37;2.37;;;;;;;;;;4977242;28;21054;-71
2021/06/22 04:58:54;;;;;;;3.37;2.20;;;;;;;;;;4957014;28;20510;-72
2021/06/22 05:01:20;;;;;;;2.70;2.03;;;;;;;;;;4972179;28;23575;-75
2021/06/22 05:03:46;;;;;;;2.87;1.80;;;;;;;;;;4973162;28;20524;-74
2021/06/22 05:06:12;;;;;;;5.07;2.47;;;;;;;;;;4981268;28;20483;-71
2021/06/22 05:08:39;;;;;;;3.43;1.90;;;;;;;;;;4981001;28;20963;-73
2021/06/22 05:11:05;;;;;;;3.80;2.30;;;;;;;;;;4961155;28;20445;-72
2021/06/22 05:13:31;;;;;;;2.40;1.90;;;;;;;;;;4979856;28;20464;-71
2021/06/22 05:15:58;;;;;;;4.87;2.47;;;;;;;;;;4981956;28;20461;-74
2021/06/22 05:18:24;;;;;;;5.90;2.80;;;;;;;;;;4982670;28;20915;-73
2021/06/22 05:20:52;;;;;;;6.30;2.57;;;;;;;;;;4980660;28;20432;-73
2021/06/22 05:23:18;;;;;;;3.83;2.10;;;;;;;;;;4981378;28;20444;-72
2021/06/22 05:25:44;;;;;;;2.90;2.00;;;;;;;;;;4980573;28;20468;-73
2021/06/22 05:28:11;;;;;;;3.23;1.70;;;;;;;;;;4984254;28;20455;-73
2021/06/22 05:30:37;;;;;;;2.00;1.60;;;;;;;;;;4985956;28;20810;-72
2021/06/22 05:33:04;;;;;;;10.73;2.03;;;;;;;;;;4967464;28;20568;-72
2021/06/22 05:35:32;;;;;;;2.73;1.80;;;;;;;;;;4988582;28;20440;-73
2021/06/22 05:37:58;;;;;;;2.00;1.67;;;;;;;;;;4988510;28;20433;-72
2021/06/22 05:40:25;;;;;;;2.60;1.60;;;;;;;;;;4985704;28;20459;-73
2021/06/22 05:42:51;;;;;;;2.13;1.80;;;;;;;;;;4989943;28;20439;-73
2021/06/22 05:45:17;;;;;;;9.00;2.00;;;;;;;;;;4984534;28;20476;-73
2021/06/22 05:47:43;;;;;;;2.93;1.50;;;;;;;;;;4966799;28;20468;-73
2021/06/22 05:50:09;;;;;;;3.77;1.50;;;;;;;;;;4982156;28;20444;-73
2021/06/22 05:52:35;;;;;;;1.20;1.10;;;;;;;;;;4986374;28;20441;-72
2021/06/22 05:55:02;;;;;;;1.70;1.30;;;;;;;;;;4985418;28;20860;-73
2021/06/22 05:57:28;;;;;;;2.77;1.80;;;;;;;;;;4985454;28;20471;-73
2021/06/22 05:59:54;;;;;;;1.20;1.10;;;;;;;;;;4980787;28;20437;-72
2021/06/22 06:02:20;;;;;;;4.90;1.63;;;;;;;;;;4981421;28;20451;-73
2021/06/22 06:04:46;;;;;;;2.33;1.40;;;;;;;;;;4980482;28;20994;-74
2021/06/22 06:07:12;;;;;;;2.50;1.27;;;;;;;;;;4983726;28;20464;-74
2021/06/22 06:09:38;;;;;;;3.60;1.20;;;;;;;;;;4981315;28;20439;-73
2021/06/22 06:12:04;;;;;;;3.37;1.30;;;;;;;;;;4982290;28;20436;-72
2021/06/22 06:14:30;;;;;;;3.20;1.23;;;;;;;;;;4982002;28;20460;-72
2021/06/22 06:16:56;;;;;;;1.70;1.10;;;;;;;;;;4984902;28;20457;-72
2021/06/22 06:19:22;;;;;;;1.37;1.17;;;;;;;;;;4982406;28;20452;-72
2021/06/22 06:21:49;;;;;;;1.53;1.03;;;;;;;;;;4972889;28;20433;-73
2021/06/22 06:24:15;;;;;;;2.97;1.17;;;;;;;;;;4985283;28;20793;-72
2021/06/22 06:26:56;;;;;;;3.47;1.17;;;;;;;;;;4969467;28;20921;-74
2021/06/22 06:31:53;;;;;;;11.63;2.10;;;;;;;;;;4984633;28;20931;-72
2021/06/22 06:34:19;;;;;;;1.50;1.40;;;;;;;;;;4985601;28;20583;-72
2021/06/22 06:36:47;;;;;;;2.17;1.10;;;;;;;;;;4982198;28;20532;-73
2021/06/22 06:39:13;;;;;;;3.17;1.27;;;;;;;;;;4985621;28;20452;-73
2021/06/22 06:41:39;;;;;;;1.67;1.57;;;;;;;;;;4984133;28;20436;-72
2021/06/22 06:44:05;;;;;;;2.77;1.30;;;;;;;;;;4962689;28;20445;-72
2021/06/22 06:46:31;;;;;;;2.27;1.43;;;;;;;;;;4983647;28;20469;-73
2021/06/22 06:48:57;;;;;;;3.10;1.40;;;;;;;;;;4980455;28;20441;-74
2021/06/22 06:51:23;;;;;;;3.33;1.70;;;;;;;;;;4981443;28;20449;-72
2021/06/22 06:53:49;;;;;;;2.97;1.70;;;;;;;;;;4987222;28;20465;-73
2021/06/22 06:56:15;;;;;;;2.93;1.63;;;;;;;;;;4979371;28;20457;-74
2021/06/22 06:58:41;;;;;;;3.27;1.50;;;;;;;;;;4984176;28;20465;-72
2021/06/22 07:01:07;;;;;;;3.93;1.40;;;;;;;;;;4984122;28;20441;-72
2021/06/22 07:03:33;;;;;;;2.80;1.53;;;;;;;;;;4967788;28;20436;-72
2021/06/22 07:05:59;;;;;;;4.43;1.30;;;;;;;;;;4989037;28;20507;-73
2021/06/22 07:08:25;;;;;;;5.17;1.53;;;;;;;;;;4986031;28;20441;-72
2021/06/22 07:10:51;;;;;;;1.60;1.43;;;;;;;;;;4986361;28;20425;-72
2021/06/22 07:13:18;;;;;;;1.50;1.40;;;;;;;;;;4982689;28;20467;-74
2021/06/22 07:15:46;;;;;;;1.50;1.40;;;;;;;;;;4984223;28;20471;-73
2021/06/22 07:18:12;;;;;;;5.53;1.30;;;;;;;;;;4987000;28;20440;-75
2021/06/22 07:20:38;;;;;;;3.20;1.40;;;;;;;;;;4988320;28;20524;-72
2021/06/22 07:23:04;;;;;;;4.40;1.60;;;;;;;;;;4985932;28;20965;-72
2021/06/22 07:25:30;;;;;;;1.70;0.97;;;;;;;;;;4986021;28;20432;-72
2021/06/22 07:27:57;;;;;;;2.53;1.10;;;;;;;;;;4976921;28;20452;-72
2021/06/22 07:30:23;;;;;;;2.03;1.27;;;;;;;;;;4970662;28;20817;-72
2021/06/22 07:32:53;;;;;;;7.53;1.30;;;;;;;;;;4984446;28;20806;-72
2021/06/22 07:35:19;;;;;;;2.33;1.27;;;;;;;;;;4966761;28;20484;-76
2021/06/22 07:37:46;;;;;;;6.40;1.60;;;;;;;;;;4971757;28;20441;-74
2021/06/22 07:40:12;;;;;;;3.90;1.20;;;;;;;;;;4983350;28;20495;-72
2021/06/22 07:42:38;;;;;;;1.57;1.30;;;;;;;;;;4985159;28;20433;-72
2021/06/22 07:45:05;;;;;;;4.63;1.23;;;;;;;;;;4983069;28;20452;-72
2021/06/22 07:47:31;;;;;;;4.00;1.03;;;;;;;;;;4980642;28;20460;-72
2021/06/22 07:49:57;;;;;;;3.07;1.10;;;;;;;;;;4988211;28;20429;-72
2021/06/22 07:52:23;;;;;;;5.40;1.37;;;;;;;;;;4983215;28;20440;-72
2021/06/22 07:54:49;;;;;;;0.73;0.70;;;;;;;;;;4967371;28;21042;-72
2021/06/22 07:57:16;;;;;;;0.83;0.83;;;;;;;;;;4971616;28;20456;-73
2021/06/22 07:59:42;;;;;;;2.70;0.97;;;;;;;;;;4984354;28;20947;-74
2021/06/22 08:02:08;;;;;;;1.73;1.20;;;;;;;;;;4983570;28;20437;-73
2021/06/22 08:04:34;;;;;;;2.00;1.10;;;;;;;;;;4988347;28;20433;-74
2021/06/22 08:07:00;;;;;;;1.80;0.80;;;;;;;;;;4986512;28;20468;-73
2021/06/22 08:09:26;;;;;;;3.37;1.70;;;;;;;;;;4984094;28;20444;-73
2021/06/22 08:11:53;;;;;;;3.03;1.10;;;;;;;;;;4986647;28;20441;-73
2021/06/22 08:14:19;;;;;;;1.70;0.97;;;;;;;;;;4985657;28;20484;-73
2021/06/22 08:16:45;;;;;;;1.67;0.93;;;;;;;;;;4985879;28;20475;-73
2021/06/22 08:19:11;;;;;;;2.20;1.07;;;;;;;;;;4970794;28;20437;-73
2021/06/22 08:21:37;;;;;;;2.23;1.00;;;;;;;;;;4968056;28;20827;-74
2021/06/22 08:24:04;;;;;;;2.90;0.80;;;;;;;;;;4985646;28;20436;-72
2021/06/22 08:26:29;;;;;;;1.37;1.00;;;;;;;;;;4985880;28;21027;-72
2021/06/22 08:28:56;;;;;;;2.27;1.10;;;;;;;;;;4969463;28;20456;-73
2021/06/22 08:31:22;;;;;;;3.87;1.50;;;;;;;;;;4974762;28;20989;-72
2021/06/22 08:33:48;;;;;;;1.27;0.87;;;;;;;;;;4985504;28;20468;-72
2021/06/22 08:36:14;;;;;;;1.53;1.30;;;;;;;;;;4984987;28;20452;-72
2021/06/22 08:38:40;;;;;;;1.67;1.50;;;;;;;;;;4986021;28;20802;-73
2021/06/22 08:41:07;;;;;;;3.33;1.00;;;;;;;;;;4984779;28;20444;-73
2021/06/22 08:43:33;;;;;;;2.93;1.10;;;;;;;;;;4966828;28;21017;-73
2021/06/22 08:46:03;;;;;;;12.60;1.80;;;;;;;;;;4965383;28;20847;-72
2021/06/22 08:48:30;;;;;;;1.00;0.80;;;;;;;;;;4963040;28;20779;-72
2021/06/22 08:50:56;;;;;;;3.30;1.30;;;;;;;;;;4981318;28;20943;-74
2021/06/22 08:53:23;;;;;;;0.73;0.73;;;;;;;;;;4964721;28;21514;-72
2021/06/22 08:55:49;;;;;;;1.70;0.90;;;;;;;;;;4963184;28;20468;-72
2021/06/22 08:58:17;;;;;;;1.37;1.10;;;;;;;;;;4979467;28;20920;-74
2021/06/22 09:00:44;;;;;;;2.60;1.20;;;;;;;;;;4964401;28;20464;-73
2021/06/22 09:03:14;;;;;;;1.03;0.90;;;;;;;;;;4980720;28;20527;-75
2021/06/22 09:05:41;;;;;;;2.60;1.17;;;;;;;;;;4983251;28;20449;-73
2021/06/22 09:08:16;;;;;;;2.37;1.20;;;;;;;;;;4970937;28;20756;-73
2021/06/22 09:10:42;;;;;;;1.90;1.10;;;;;;;;;;4979521;28;21183;-72
2021/06/22 09:13:17;;;;;;;1.20;1.00;;;;;;;;;;4967769;28;20454;-73
2021/06/22 09:15:45;;;;;;;3.23;1.43;;;;;;;;;;4984143;28;20456;-74
2021/06/22 09:18:28;;;;;;;3.03;0.90;;;;;;;;;;4984970;28;20435;-73
2021/06/22 09:20:54;;;;;;;2.20;1.10;;;;;;;;;;4985637;28;20438;-73
2021/06/22 09:23:39;;;;;;;0.83;0.77;;;;;;;;;;4984839;28;20429;-73
2021/06/22 09:26:26;;;;;;;2.93;0.80;;;;;;;;;;4982982;28;20452;-72
2021/06/22 09:28:52;;;;;;;1.20;0.80;;;;;;;;;;4982421;28;20452;-74
2021/06/22 09:31:19;;;;;;;4.40;1.70;;;;;;;;;;4984035;28;20667;-72
2021/06/22 09:33:51;;;;;;;1.90;0.70;;;;;;;;;;4984461;28;20490;-73
2021/06/22 09:36:26;;;;;;;1.80;0.80;;;;;;;;;;4985110;28;20465;-72
2021/06/22 09:38:57;;;;;;;3.27;1.10;;;;;;;;;;4985490;28;20440;-74
2021/06/22 09:41:30;;;;;;;1.73;0.70;;;;;;;;;;4984367;28;20456;-73
2021/06/22 09:44:07;;;;;;;3.67;1.00;;;;;;;;;;4980087;28;20445;-72
2021/06/22 09:46:51;;;;;;;1.37;0.87;;;;;;;;;;4982370;28;20499;-72
2021/06/22 09:49:19;;;;;;;3.10;1.20;;;;;;;;;;4982050;28;20440;-74
2021/06/22 09:51:53;;;;;;;3.70;1.30;;;;;;;;;;4985721;28;20463;-72
2021/06/22 09:54:23;;;;;;;1.67;1.30;;;;;;;;;;4983707;28;20522;-73
2021/06/22 09:56:53;;;;;;;2.20;1.13;;;;;;;;;;4984224;28;20480;-72
2021/06/22 09:59:20;;;;;;;2.57;1.30;;;;;;;;;;4981887;28;20515;-73
2021/06/22 10:01:46;;;;;;;2.57;1.40;;;;;;;;;;4983489;28;20441;-74
2021/06/22 10:04:13;;;;;;;2.20;1.20;;;;;;;;;;4979217;28;20450;-72
2021/06/22 10:06:40;;;;;;;1.03;0.93;;;;;;;;;;4977935;28;20464;-73
2021/06/22 10:09:06;;;;;;;4.13;1.10;;;;;;;;;;4962408;28;20449;-72
2021/06/22 10:11:33;;;;;;;1.53;1.00;;;;;;;;;;4982127;28;20460;-72
2021/06/22 10:14:00;;;;;;;2.80;1.13;;;;;;;;;;4976150;28;20548;-72
2021/06/22 10:16:29;;;;;;;2.57;1.30;;;;;;;;;;4985887;28;20457;-74
2021/06/22 10:18:56;;;;;;;2.30;1.10;;;;;;;;;;4987212;28;20456;-73
2021/06/22 10:21:22;;;;;;;4.73;2.00;;;;;;;;;;4987199;28;20448;-73
2021/06/22 10:23:49;;;;;;;4.17;1.83;;;;;;;;;;4972717;28;20963;-71
2021/06/22 10:26:15;;;;;;;2.00;1.20;;;;;;;;;;4987966;28;20453;-74
2021/06/22 10:28:44;;;;;;;1.30;1.20;;;;;;;;;;4987546;28;20551;-72
2021/06/22 10:31:11;;;;;;;1.30;0.90;;;;;;;;;;4973073;28;20440;-72
2021/06/22 10:33:37;;;;;;;1.73;1.30;;;;;;;;;;4986907;28;20496;-73
2021/06/22 10:36:03;;;;;;;1.27;1.17;;;;;;;;;;4982582;28;20492;-74
2021/06/22 10:38:36;;;;;;;2.30;1.37;;;;;;;;;;4975338;28;20429;-72
2021/06/22 10:41:02;;;;;;;1.70;1.60;;;;;;;;;;4981183;28;20862;-72
2021/06/22 10:43:35;;;;;;;1.60;1.03;;;;;;;;;;4980362;28;20449;-72
2021/06/22 10:46:04;;;;;;;1.50;1.40;;;;;;;;;;4967519;28;20503;-74
2021/06/22 10:48:49;;;;;;;1.47;1.10;;;;;;;;;;4951926;28;20544;-72
2021/06/22 10:51:28;;;;;;;2.40;0.90;;;;;;;;;;4974623;28;20448;-72
2021/06/22 10:53:54;;;;;;;2.40;1.20;;;;;;;;;;4977649;28;20881;-74
2021/06/22 10:56:21;;;;;;;2.83;0.80;;;;;;;;;;4978785;28;20460;-72
2021/06/22 10:59:06;;;;;;;0.97;0.70;;;;;;;;;;4976043;28;20475;-72
2021/06/22 11:01:52;;;;;;;5.30;1.20;;;;;;;;;;4986107;28;20495;-72
2021/06/22 11:04:19;;;;;;;1.67;1.10;;;;;;;;;;4984512;28;20484;-70
2021/06/22 11:07:05;;;;;;;2.30;1.17;;;;;;;;;;4981939;28;20456;-74
2021/06/22 11:09:31;;;;;;;1.20;0.80;;;;;;;;;;4958144;28;20448;-74
2021/06/22 11:12:16;;;;;;;1.20;1.00;;;;;;;;;;4986557;28;20986;-74
2021/06/22 11:15:00;;;;;;;2.43;1.20;;;;;;;;;;4972859;28;20468;-72
2021/06/22 11:17:42;;;;;;;3.83;0.97;;;;;;;;;;4981145;28;21020;-72
2021/06/22 11:20:13;;;;;;;1.43;1.10;;;;;;;;;;4982982;28;20467;-73
2021/06/22 11:22:58;;;;;;;2.70;1.20;;;;;;;;;;4983381;28;20441;-72
2021/06/22 11:25:24;;;;;;;1.80;1.50;;;;;;;;;;4970922;28;20448;-73
2021/06/22 11:28:03;;;;;;;1.80;1.20;;;;;;;;;;4985370;28;20514;-73
2021/06/22 11:30:48;;;;;;;3.33;1.77;;;;;;;;;;4985621;28;20440;-77
2021/06/22 11:33:35;;;;;;;2.43;1.30;;;;;;;;;;4981121;28;20452;-73
2021/06/22 11:36:19;;;;;;;2.03;1.43;;;;;;;;;;4983879;28;20464;-73
2021/06/22 11:39:06;;;;;;;2.70;1.00;;;;;;;;;;4982738;28;20438;-72
2021/06/22 11:41:33;;;;;;;3.23;0.90;;;;;;;;;;4980450;28;20416;-72
2021/06/22 11:44:07;;;;;;;1.43;1.33;;;;;;;;;;4982872;28;20445;-73
2021/06/22 11:46:38;;;;;;;1.23;1.13;;;;;;;;;;4967358;28;20522;-72
2021/06/22 11:49:05;;;;;;;1.73;1.60;;;;;;;;;;4983500;28;20955;-72
2021/06/22 11:51:49;;;;;;;5.60;1.63;;;;;;;;;;4983454;28;20472;-73
2021/06/22 11:54:38;;;;;;;1.33;1.23;;;;;;;;;;4981959;28;20452;-71
2021/06/22 11:57:04;;;;;;;4.50;1.20;;;;;;;;;;4981280;28;20482;-72
2021/06/22 11:59:30;;;;;;;1.37;1.27;;;;;;;;;;4980865;28;20432;-71
2021/06/22 12:01:56;;;;;;;1.63;1.10;;;;;;;;;;4983689;28;20473;-72
2021/06/22 12:04:24;;;;;;;2.00;1.33;;;;;;;;;;4972328;28;20437;-72
2021/06/22 12:06:53;;;;;;;1.27;1.10;;;;;;;;;;4980615;28;20461;-73
2021/06/22 12:09:20;;;;;;;1.60;1.40;;;;;;;;;;4985956;28;20958;-72
2021/06/22 12:11:47;;;;;;;2.73;1.40;;;;;;;;;;4956705;28;20460;-76
2021/06/22 12:14:14;;;;;;;1.60;1.50;;;;;;;;;;4982448;28;20483;-75
2021/06/22 12:16:43;;;;;;;2.10;1.33;;;;;;;;;;4987575;28;20445;-73
2021/06/22 12:19:14;;;;;;;3.60;1.50;;;;;;;;;;4986369;28;20814;-73
2021/06/22 12:21:45;;;;;;;6.67;1.57;;;;;;;;;;4983859;28;20437;-73
2021/06/22 12:24:11;;;;;;;1.50;1.40;;;;;;;;;;4970673;28;20966;-72
2021/06/22 12:26:39;;;;;;;1.50;1.20;;;;;;;;;;4968024;28;20527;-72
2021/06/22 12:29:16;;;;;;;6.27;1.60;;;;;;;;;;4969046;28;20539;-72
2021/06/22 12:31:48;;;;;;;2.23;1.30;;;;;;;;;;4967582;28;20544;-73
2021/06/22 12:34:14;;;;;;;1.77;1.53;;;;;;;;;;4965426;28;20547;-74
2021/06/22 12:36:40;;;;;;;3.47;1.37;;;;;;;;;;4984401;28;20457;-72
2021/06/22 12:39:06;;;;;;;2.30;1.10;;;;;;;;;;4979888;28;20447;-73
2021/06/22 12:41:33;;;;;;;3.07;1.20;;;;;;;;;;4980809;28;20961;-72
2021/06/22 12:44:04;;;;;;;2.80;1.33;;;;;;;;;;4983741;28;20448;-73
2021/06/22 12:46:33;;;;;;;4.00;1.27;;;;;;;;;;4976705;28;21421;-71
2021/06/22 12:49:04;;;;;;;3.13;1.57;;;;;;;;;;4969040;28;20433;-75
2021/06/22 12:51:33;;;;;;;1.83;1.60;;;;;;;;;;4977644;28;20437;-72
2021/06/22 12:54:00;;;;;;;2.00;1.80;;;;;;;;;;4981665;28;20465;-74
2021/06/22 12:56:31;;;;;;;2.73;1.40;;;;;;;;;;4970433;28;20838;-75
2021/06/22 12:58:57;;;;;;;2.90;1.37;;;;;;;;;;4985198;28;20425;-72
2021/06/22 13:01:33;;;;;;;1.60;1.27;;;;;;;;;;4981677;28;20498;-72
2021/06/22 13:04:00;;;;;;;3.00;2.07;;;;;;;;;;4984189;28;20462;-73
2021/06/22 13:06:30;;;;;;;1.33;1.23;;;;;;;;;;4984813;28;20461;-72
2021/06/22 13:08:57;;;;;;;2.20;1.27;;;;;;;;;;4982249;28;20514;-72
2021/06/22 13:11:24;;;;;;;1.73;1.50;;;;;;;;;;4983705;28;20437;-75
2021/06/22 13:13:50;;;;;;;1.67;1.27;;;;;;;;;;4982673;28;20876;-74
2021/06/22 13:16:16;;;;;;;4.90;2.20;;;;;;;;;;4981638;28;20503;-74
2021/06/22 13:18:55;;;;;;;1.50;1.40;;;;;;;;;;4965909;28;20540;-72
2021/06/22 13:21:22;;;;;;;3.80;1.83;;;;;;;;;;4981828;28;20437;-72
2021/06/22 13:23:48;;;;;;;5.50;1.97;;;;;;;;;;4980836;28;20556;-72
2021/06/22 13:26:14;;;;;;;5.60;1.57;;;;;;;;;;4980390;28;21052;-72
2021/06/22 13:28:40;;;;;;;6.97;1.90;;;;;;;;;;4980347;28;20465;-72
2021/06/22 13:31:12;;;;;;;3.57;1.63;;;;;;;;;;4983334;28;20453;-72
2021/06/22 13:33:38;;;;;;;2.90;1.57;;;;;;;;;;4982548;28;20472;-72
2021/06/22 13:36:04;;;;;;;3.23;1.33;;;;;;;;;;4980741;28;20835;-72
2021/06/22 13:38:35;;;;;;;1.57;1.43;;;;;;;;;;4968767;28;20433;-72
2021/06/22 13:41:03;;;;;;;2.57;1.43;;;;;;;;;;4981077;28;20508;-71
2021/06/22 13:43:29;;;;;;;2.20;1.40;;;;;;;;;;4979624;28;20455;-72
2021/06/22 13:45:59;;;;;;;3.53;1.43;;;;;;;;;;4981931;28;20544;-72
2021/06/22 13:48:28;;;;;;;3.73;1.70;;;;;;;;;;4983423;28;20445;-73
2021/06/22 13:50:56;;;;;;;3.53;2.03;;;;;;;;;;4966389;28;20570;-73
2021/06/22 13:53:26;;;;;;;1.57;1.47;;;;;;;;;;4983517;28;20443;-72
2021/06/22 13:55:53;;;;;;;5.00;1.17;;;;;;;;;;4984443;28;20459;-72
2021/06/22 13:58:19;;;;;;;2.40;0.90;;;;;;;;;;4988252;28;20961;-72
2021/06/22 14:00:47;;;;;;;3.90;1.20;;;;;;;;;;4990349;28;20511;-71
2021/06/22 14:03:13;;;;;;;2.40;1.20;;;;;;;;;;4989434;28;20428;-74
2021/06/22 14:05:40;;;;;;;2.00;1.27;;;;;;;;;;4988441;28;20457;-71
2021/06/22 14:08:07;;;;;;;3.90;1.20;;;;;;;;;;4987677;28;20441;-73
2021/06/22 14:10:34;;;;;;;3.00;1.13;;;;;;;;;;4990869;28;20460;-71
2021/06/22 14:13:02;;;;;;;1.90;0.90;;;;;;;;;;4987311;28;20443;-72
2021/06/22 14:15:28;;;;;;;0.70;0.70;;;;;;;;;;4987825;28;20555;-72
2021/06/22 14:17:54;;;;;;;0.80;0.80;;;;;;;;;;4983896;28;20946;-72
2021/06/22 14:20:21;;;;;;;2.50;1.63;;;;;;;;;;4985282;28;20536;-71
2021/06/22 14:22:47;;;;;;;1.60;0.93;;;;;;;;;;4985430;28;21165;-72
2021/06/22 14:25:14;;;;;;;1.73;0.90;;;;;;;;;;4974312;28;20994;-71
2021/06/22 14:27:40;;;;;;;1.23;0.97;;;;;;;;;;4972461;28;20478;-70
2021/06/22 14:30:07;;;;;;;2.30;1.00;;;;;;;;;;4985571;28;20445;-72
2021/06/22 14:32:33;;;;;;;3.60;0.87;;;;;;;;;;4985011;28;20536;-73
2021/06/22 14:35:00;;;;;;;1.43;0.87;;;;;;;;;;4966637;28;20567;-73
2021/06/22 14:37:33;;;;;;;3.13;0.70;;;;;;;;;;4987680;28;21051;-71
2021/06/22 14:40:00;;;;;;;1.57;1.00;;;;;;;;;;4986393;28;20432;-72
2021/06/22 14:42:26;;;;;;;2.67;1.70;;;;;;;;;;4987331;28;20461;-72
2021/06/22 14:44:53;;;;;;;6.23;1.53;;;;;;;;;;4976465;28;20439;-71
2021/06/22 14:47:19;;;;;;;1.63;1.07;;;;;;;;;;4971708;28;20453;-73
2021/06/22 14:49:45;;;;;;;3.33;1.90;;;;;;;;;;4970166;28;20440;-70